createdAt,value
2023-01-31T00:01:29.951Z,23.83
2023-01-31T00:04:02.692Z,18.70
2023-01-31T00:06:35.260Z,26.63
2023-01-31T00:09:03.760Z,29.48
2023-01-31T00:11:31.538Z,27.40
2023-01-31T00:13:59.731Z,26.17
2023-01-31T00:16:27.277Z,32.45
2023-01-31T00:18:54.839Z,21.30
2023-01-31T00:21:24.773Z,20.17
2023-01-31T00:23:52.996Z,24.88
2023-01-31T00:26:31.856Z,31.02
2023-01-31T00:29:00.754Z,21.27
2023-01-31T00:31:29.718Z,26.65
2023-01-31T00:33:57.183Z,21.70
2023-01-31T00:36:26.826Z,23.92
2023-01-31T00:38:56.461Z,24.15
2023-01-31T00:41:25.034Z,23.67
2023-01-31T00:43:52.193Z,21.20
2023-01-31T00:46:20.422Z,17.05
2023-01-31T00:48:48.396Z,28.38
2023-01-31T00:51:15.793Z,17.60
2023-01-31T00:53:42.906Z,22.10
2023-01-31T00:56:12.181Z,17.83
2023-01-31T00:58:39.675Z,23.58
2023-01-31T01:01:07.051Z,22.50
2023-01-31T01:03:34.813Z,23.73
2023-01-31T01:06:02.972Z,27.83
2023-01-31T01:08:31.005Z,22.65
2023-01-31T01:11:11.868Z,23.50
2023-01-31T01:13:39.892Z,20.88
2023-01-31T01:16:12.488Z,20.75
2023-01-31T01:18:40.214Z,21.98
2023-01-31T01:21:09.785Z,20.13
2023-01-31T01:23:38.223Z,15.50
2023-01-31T01:26:06.075Z,17.05
2023-01-31T01:28:35.117Z,25.92
2023-01-31T01:31:09.788Z,21.92
2023-01-31T01:33:37.269Z,25.05
2023-01-31T01:36:06.355Z,19.55
2023-01-31T01:38:37.572Z,19.00
2023-01-31T01:41:04.996Z,23.88
2023-01-31T01:43:55.163Z,14.18
2023-01-31T01:46:26.092Z,26.50
2023-01-31T01:48:58.027Z,21.63
2023-01-31T01:51:25.541Z,14.57
2023-01-31T01:53:56.308Z,22.40
2023-01-31T01:56:29.406Z,22.50
2023-01-31T01:59:12.669Z,21.27
2023-01-31T02:01:39.998Z,22.80
2023-01-31T02:04:12.197Z,18.27
2023-01-31T02:06:39.497Z,16.02
2023-01-31T02:09:09.515Z,23.02
2023-01-31T02:11:36.689Z,14.88
2023-01-31T02:14:08.830Z,16.85
2023-01-31T02:16:37.100Z,13.82
2023-01-31T02:19:12.761Z,19.20
2023-01-31T02:22:08.621Z,18.10
2023-01-31T02:24:44.504Z,26.45
2023-01-31T02:27:29.438Z,25.80
2023-01-31T02:30:27.637Z,16.20
2023-01-31T02:33:20.731Z,20.38
2023-01-31T02:36:26.860Z,25.50
2023-01-31T02:38:59.746Z,16.73
2023-01-31T02:41:52.152Z,17.63
2023-01-31T02:44:55.847Z,22.70
2023-01-31T02:47:33.175Z,18.75
2023-01-31T02:50:27.479Z,12.52
2023-01-31T02:53:06.792Z,26.90
2023-01-31T02:55:56.145Z,22.60
2023-01-31T02:58:25.541Z,18.85
2023-01-31T03:00:56.775Z,19.50
2023-01-31T03:03:31.077Z,24.23
2023-01-31T03:06:33.424Z,23.58
2023-01-31T03:09:07.659Z,27.10
2023-01-31T03:12:06.647Z,23.88
2023-01-31T03:14:43.176Z,15.63
2023-01-31T03:17:35.115Z,14.70
2023-01-31T03:20:11.064Z,18.55
2023-01-31T03:22:40.836Z,17.92
2023-01-31T03:25:10.176Z,20.88
2023-01-31T03:27:39.334Z,12.68
2023-01-31T03:30:17.382Z,16.23
2023-01-31T03:32:56.061Z,14.00
2023-01-31T03:35:27.847Z,24.00
2023-01-31T03:38:00.936Z,13.93
2023-01-31T03:40:34.175Z,16.20
2023-01-31T03:43:06.973Z,16.98
2023-01-31T03:45:41.105Z,14.20
2023-01-31T03:48:14.321Z,18.35
2023-01-31T03:50:45.203Z,14.85
2023-01-31T03:53:40.415Z,18.73
2023-01-31T03:56:18.559Z,20.67
2023-01-31T03:58:50.823Z,23.08
2023-01-31T04:01:18.909Z,17.73
2023-01-31T04:03:52.552Z,20.52
2023-01-31T04:06:19.899Z,20.90
2023-01-31T04:08:47.143Z,17.88
2023-01-31T04:11:15.094Z,18.17
2023-01-31T04:13:42.512Z,14.82
2023-01-31T04:16:09.773Z,15.95
2023-01-31T04:18:38.601Z,18.40
2023-01-31T04:21:05.985Z,16.20
2023-01-31T04:23:33.424Z,18.33
2023-01-31T04:26:00.622Z,25.80
2023-01-31T04:28:27.832Z,27.23
2023-01-31T04:30:56.653Z,22.30
2023-01-31T04:33:24.373Z,23.20
2023-01-31T04:35:52.278Z,18.33
2023-01-31T04:38:19.411Z,22.55
2023-01-31T04:40:47.785Z,13.63
2023-01-31T04:43:14.982Z,19.55
2023-01-31T04:45:42.420Z,13.98
2023-01-31T04:48:10.006Z,22.92
2023-01-31T04:50:37.249Z,23.25
2023-01-31T04:53:04.891Z,16.40
2023-01-31T04:55:32.123Z,19.70
2023-01-31T04:57:59.306Z,15.85
2023-01-31T05:00:27.160Z,17.85
2023-01-31T05:02:54.620Z,20.42
2023-01-31T05:05:22.039Z,25.73
2023-01-31T05:07:49.342Z,24.70
2023-01-31T05:10:18.094Z,21.13
2023-01-31T05:12:46.618Z,21.67
2023-01-31T05:15:13.788Z,20.08
2023-01-31T05:17:41.001Z,22.58
2023-01-31T05:20:08.946Z,14.30
2023-01-31T05:22:36.154Z,20.42
2023-01-31T05:25:03.736Z,19.42
2023-01-31T05:27:31.515Z,24.55
2023-01-31T05:30:00.594Z,20.58
2023-01-31T05:32:27.935Z,19.35
2023-01-31T05:34:55.087Z,15.05
2023-01-31T05:37:22.308Z,19.40
2023-01-31T05:39:49.439Z,22.10
2023-01-31T05:42:16.693Z,21.98
2023-01-31T05:44:43.838Z,14.23
2023-01-31T05:47:10.961Z,16.40
2023-01-31T05:49:38.067Z,17.98
2023-01-31T05:52:05.234Z,15.40
2023-01-31T05:54:32.666Z,19.33
2023-01-31T05:57:00.305Z,16.35
2023-01-31T05:59:30.931Z,17.85
2023-01-31T06:01:58.375Z,23.67
2023-01-31T06:04:25.564Z,35.30
2023-01-31T06:06:52.684Z,21.92
2023-01-31T06:09:19.935Z,23.45
2023-01-31T06:11:47.096Z,20.77
2023-01-31T06:14:14.302Z,29.45
2023-01-31T06:16:41.539Z,19.23
2023-01-31T06:19:08.620Z,31.50
2023-01-31T06:21:36.017Z,15.02
2023-01-31T06:24:03.208Z,23.20
2023-01-31T06:26:30.768Z,16.67
2023-01-31T06:28:59.056Z,21.50
2023-01-31T06:31:26.319Z,23.25
2023-01-31T06:33:53.521Z,28.55
2023-01-31T06:36:23.818Z,22.70
2023-01-31T06:38:52.331Z,25.05
2023-01-31T06:41:20.313Z,24.77
2023-01-31T06:43:47.878Z,20.90
2023-01-31T06:46:15.086Z,21.17
2023-01-31T06:48:42.267Z,24.20
2023-01-31T06:51:09.860Z,20.38
2023-01-31T06:53:36.980Z,23.25
2023-01-31T06:56:04.370Z,21.80
2023-01-31T06:58:33.612Z,25.08
2023-01-31T07:01:08.461Z,15.75
2023-01-31T07:03:35.805Z,23.08
2023-01-31T07:06:03.035Z,18.67
2023-01-31T07:08:33.837Z,22.83
2023-01-31T07:11:02.230Z,22.05
2023-01-31T07:13:30.227Z,24.95
2023-01-31T07:15:57.581Z,21.77
2023-01-31T07:18:24.888Z,22.60
2023-01-31T07:20:52.656Z,15.55
2023-01-31T07:23:19.883Z,26.67
2023-01-31T07:25:47.022Z,21.25
2023-01-31T07:28:14.137Z,17.05
2023-01-31T07:30:43.692Z,13.15
2023-01-31T07:33:11.619Z,15.65
2023-01-31T07:35:38.760Z,20.40
2023-01-31T07:38:05.972Z,19.13
2023-01-31T07:40:33.332Z,20.35
2023-01-31T07:43:00.707Z,31.23
2023-01-31T07:45:28.004Z,24.83
2023-01-31T07:47:58.043Z,25.42
2023-01-31T07:50:27.072Z,25.85
2023-01-31T07:52:54.318Z,21.75
2023-01-31T07:55:21.928Z,23.90
2023-01-31T07:57:49.296Z,20.52
2023-01-31T08:00:35.140Z,22.05
2023-01-31T08:03:20.601Z,15.30
2023-01-31T08:05:47.904Z,23.88
2023-01-31T08:08:15.025Z,17.92
2023-01-31T08:10:42.180Z,14.70
2023-01-31T08:13:11.730Z,22.52
2023-01-31T08:15:39.490Z,24.55
2023-01-31T08:18:06.783Z,19.35
2023-01-31T08:20:34.340Z,22.02
2023-01-31T08:23:01.540Z,23.73
2023-01-31T08:25:30.530Z,19.60
2023-01-31T08:27:58.194Z,23.67
2023-01-31T08:30:25.463Z,19.73
2023-01-31T08:32:52.636Z,18.75
2023-01-31T08:35:20.085Z,15.63
2023-01-31T08:37:47.824Z,15.68
2023-01-31T08:40:15.051Z,23.20
2023-01-31T08:42:42.666Z,15.18
2023-01-31T08:45:10.748Z,22.38
2023-01-31T08:47:38.752Z,14.90
2023-01-31T08:50:13.122Z,15.30
2023-01-31T08:53:15.408Z,17.67
2023-01-31T08:55:42.539Z,20.48
2023-01-31T08:58:09.639Z,19.02
2023-01-31T09:01:02.259Z,22.88
2023-01-31T09:03:30.166Z,17.63
2023-01-31T09:06:05.858Z,17.10
2023-01-31T09:11:03.216Z,16.15
2023-01-31T09:13:31.308Z,27.73
2023-01-31T09:16:03.860Z,21.38
2023-01-31T09:18:31.083Z,21.33
2023-01-31T09:21:10.407Z,23.73
2023-01-31T09:23:40.683Z,19.05
2023-01-31T09:26:13.001Z,20.52
2023-01-31T09:28:42.963Z,24.95
2023-01-31T09:31:15.912Z,21.40
2023-01-31T09:33:43.187Z,24.58
2023-01-31T09:36:18.936Z,17.95
2023-01-31T09:38:46.524Z,18.70
2023-01-31T09:41:51.854Z,23.13
2023-01-31T09:44:33.519Z,23.33
2023-01-31T09:47:14.671Z,13.77
2023-01-31T09:50:20.349Z,21.02
2023-01-31T09:52:48.304Z,30.90
2023-01-31T09:55:20.967Z,23.77
2023-01-31T09:58:20.656Z,38.28
2023-01-31T10:00:52.290Z,32.85
2023-01-31T10:03:40.627Z,28.27
2023-01-31T10:06:17.452Z,26.95
2023-01-31T10:08:48.466Z,25.27
2023-01-31T10:11:29.707Z,28.02
2023-01-31T10:14:17.334Z,18.48
2023-01-31T10:16:58.656Z,17.48
2023-01-31T10:19:29.689Z,23.52
2023-01-31T10:22:05.682Z,17.65
2023-01-31T10:27:11.897Z,24.38
2023-01-31T10:29:45.208Z,30.20
2023-01-31T10:32:21.723Z,22.10
2023-01-31T10:34:54.755Z,16.92
2023-01-31T10:37:35.511Z,24.67
2023-01-31T10:40:09.748Z,20.60
2023-01-31T10:42:38.537Z,23.60
2023-01-31T10:45:08.575Z,28.40
2023-01-31T10:47:36.613Z,27.42
2023-01-31T10:50:22.438Z,27.00
2023-01-31T10:53:23.556Z,16.33
2023-01-31T10:56:04.051Z,20.83
2023-01-31T10:58:31.440Z,22.17
2023-01-31T11:00:59.053Z,16.05
2023-01-31T11:03:26.324Z,25.00
2023-01-31T11:05:57.409Z,25.27
2023-01-31T11:08:41.710Z,19.63
2023-01-31T11:11:11.170Z,28.23
2023-01-31T11:13:39.134Z,20.98
2023-01-31T11:16:11.074Z,22.63
2023-01-31T11:18:45.282Z,25.48
2023-01-31T11:21:39.717Z,23.10
2023-01-31T11:24:20.057Z,20.75
2023-01-31T11:27:00.202Z,20.17
2023-01-31T11:29:44.876Z,17.45
2023-01-31T11:32:21.208Z,19.77
2023-01-31T11:35:09.973Z,38.67
2023-01-31T11:37:53.696Z,15.60
2023-01-31T11:40:30.448Z,28.83
2023-01-31T11:42:59.774Z,18.00
2023-01-31T11:45:32.243Z,31.02
2023-01-31T11:48:22.436Z,29.17
2023-01-31T11:50:52.551Z,32.92
2023-01-31T11:53:23.109Z,15.48
2023-01-31T11:55:51.943Z,33.33
2023-01-31T11:58:32.381Z,21.10
2023-01-31T12:01:03.030Z,23.95
2023-01-31T12:03:30.666Z,22.30
2023-01-31T12:06:08.712Z,23.38
2023-01-31T12:08:36.989Z,24.10
2023-01-31T12:11:06.286Z,28.83
2023-01-31T12:13:46.649Z,25.42
2023-01-31T12:16:14.699Z,25.05
2023-01-31T12:18:48.068Z,21.92
2023-01-31T12:21:56.298Z,31.77
2023-01-31T12:24:41.296Z,26.27
2023-01-31T12:27:14.139Z,19.88
2023-01-31T12:29:56.363Z,30.50
2023-01-31T12:32:54.751Z,25.02
2023-01-31T12:35:27.966Z,19.88
2023-01-31T12:41:50.621Z,21.05
2023-01-31T12:44:36.522Z,16.55
2023-01-31T12:47:34.824Z,16.15
2023-01-31T12:50:31.469Z,16.25
2023-01-31T12:56:02.625Z,17.30
2023-01-31T12:59:06.275Z,21.73
2023-01-31T13:01:57.735Z,21.27
2023-01-31T13:04:43.729Z,21.48
2023-01-31T13:07:30.144Z,25.20
2023-01-31T13:09:59.472Z,23.08
2023-01-31T13:12:30.633Z,25.13
2023-01-31T13:15:05.595Z,14.82
2023-01-31T13:17:35.144Z,18.00
2023-01-31T13:20:20.353Z,20.48
2023-01-31T13:22:54.716Z,20.83
2023-01-31T13:25:29.045Z,18.58
2023-01-31T13:27:59.536Z,24.88
2023-01-31T13:31:01.785Z,20.67
2023-01-31T13:34:11.098Z,18.02
2023-01-31T13:37:01.451Z,21.40
2023-01-31T13:39:33.457Z,18.00
2023-01-31T13:42:00.572Z,14.65
2023-01-31T13:44:27.682Z,17.48
2023-01-31T13:46:59.937Z,19.52
2023-01-31T13:49:35.285Z,22.05
2023-01-31T13:52:09.251Z,13.43
2023-01-31T13:54:40.066Z,15.48
2023-01-31T13:57:07.962Z,15.02
2023-01-31T13:59:37.756Z,17.05
2023-01-31T14:02:08.756Z,11.50
2023-01-31T14:04:40.085Z,15.77
2023-01-31T14:07:10.237Z,11.88
2023-01-31T14:09:42.921Z,12.90
2023-01-31T14:12:10.008Z,9.55
2023-01-31T14:14:41.668Z,7.78
2023-01-31T14:17:21.742Z,9.93
2023-01-31T14:19:51.667Z,10.38
2023-01-31T14:22:21.920Z,11.02
2023-01-31T14:24:56.551Z,7.50
2023-01-31T14:27:37.210Z,9.35
2023-01-31T14:30:04.708Z,7.15
2023-01-31T14:32:47.824Z,8.20
2023-01-31T14:35:14.816Z,7.45
2023-01-31T14:37:57.885Z,5.80
2023-01-31T14:40:30.377Z,4.32
2023-01-31T14:43:25.381Z,8.50
2023-01-31T14:45:55.260Z,7.00
2023-01-31T14:48:51.688Z,8.80
2023-01-31T14:51:28.204Z,6.80
2023-01-31T14:54:18.400Z,6.97
2023-01-31T14:56:45.468Z,6.18
2023-01-31T14:59:26.091Z,7.78
2023-01-31T15:01:53.853Z,9.60
2023-01-31T15:04:23.003Z,9.23
2023-01-31T15:06:51.908Z,8.27
2023-01-31T15:09:21.761Z,6.35
2023-01-31T15:11:50.012Z,6.70
2023-01-31T15:14:40.954Z,9.57
2023-01-31T15:17:35.611Z,6.55
2023-01-31T15:20:06.618Z,6.25
2023-01-31T15:22:38.780Z,8.00
2023-01-31T15:25:18.680Z,11.43
2023-01-31T15:27:47.442Z,10.27
2023-01-31T15:30:19.706Z,9.60
2023-01-31T15:32:56.955Z,13.98
2023-01-31T15:35:34.346Z,11.85
2023-01-31T15:38:41.730Z,10.00
2023-01-31T15:41:20.058Z,9.73
2023-01-31T15:43:48.067Z,11.50
2023-01-31T15:46:21.835Z,9.98
2023-01-31T15:48:49.104Z,10.82
2023-01-31T15:51:17.242Z,12.38
2023-01-31T15:53:44.567Z,8.88
2023-01-31T15:56:22.071Z,11.77
2023-01-31T15:58:51.772Z,9.20
2023-01-31T16:01:19.055Z,10.05
2023-01-31T16:03:57.491Z,9.60
2023-01-31T16:06:34.259Z,12.68
2023-01-31T16:09:03.904Z,13.25
2023-01-31T16:11:34.134Z,11.23
2023-01-31T16:14:07.496Z,11.88
2023-01-31T16:16:35.550Z,8.00
2023-01-31T16:19:03.225Z,8.02
2023-01-31T16:21:41.831Z,11.20
2023-01-31T16:24:13.761Z,8.23
2023-01-31T16:27:06.793Z,12.43
2023-01-31T16:29:45.485Z,13.75
2023-01-31T16:32:34.359Z,9.52
2023-01-31T16:35:04.829Z,11.40
2023-01-31T16:37:40.060Z,11.85
2023-01-31T16:40:21.560Z,13.07
2023-01-31T16:42:49.508Z,11.07
2023-01-31T16:45:33.079Z,14.75
2023-01-31T16:48:20.663Z,10.80
2023-01-31T16:50:49.092Z,15.15
2023-01-31T16:53:30.997Z,14.50
2023-01-31T16:56:13.113Z,11.02
2023-01-31T16:58:47.932Z,10.98
2023-01-31T17:01:21.738Z,16.40
2023-01-31T17:04:03.125Z,14.52
2023-01-31T17:06:30.485Z,11.75
2023-01-31T17:08:57.676Z,15.13
2023-01-31T17:11:41.537Z,12.32
2023-01-31T17:14:09.899Z,11.45
2023-01-31T17:16:37.060Z,13.95
2023-01-31T17:19:04.313Z,15.80
2023-01-31T17:21:37.749Z,13.43
2023-01-31T17:24:05.011Z,14.35
2023-01-31T17:26:32.251Z,16.13
2023-01-31T17:29:02.396Z,13.25
2023-01-31T17:31:31.160Z,16.23
2023-01-31T17:33:58.527Z,17.73
2023-01-31T17:36:25.693Z,17.77
2023-01-31T17:38:53.119Z,12.65
2023-01-31T17:41:24.356Z,12.38
2023-01-31T17:43:51.463Z,13.07
2023-01-31T17:46:19.362Z,13.10
2023-01-31T17:48:46.565Z,15.20
2023-01-31T17:51:14.548Z,12.32
2023-01-31T17:53:49.438Z,14.43
2023-01-31T17:58:45.099Z,11.52
2023-01-31T18:01:14.055Z,14.90
2023-01-31T18:03:42.092Z,12.85
2023-01-31T18:06:09.960Z,11.18
2023-01-31T18:08:37.060Z,16.20
2023-01-31T18:11:06.207Z,13.75
2023-01-31T18:13:33.452Z,12.20
2023-01-31T18:16:26.769Z,13.50
2023-01-31T18:18:54.671Z,13.13
2023-01-31T18:21:23.127Z,11.27
2023-01-31T18:23:54.527Z,17.40
2023-01-31T18:26:23.225Z,12.50
2023-01-31T18:28:50.870Z,8.95
2023-01-31T18:31:18.719Z,11.35
2023-01-31T18:33:46.930Z,9.65
2023-01-31T18:36:17.166Z,10.40
2023-01-31T18:38:45.969Z,10.45
2023-01-31T18:41:14.761Z,10.60
2023-01-31T18:43:43.070Z,10.43
2023-01-31T18:46:10.477Z,13.25
2023-01-31T18:48:38.982Z,12.02
2023-01-31T18:51:11.959Z,9.20
2023-01-31T18:53:41.294Z,12.15
2023-01-31T18:56:12.791Z,13.32
2023-01-31T18:58:41.633Z,10.95
2023-01-31T19:01:12.869Z,17.20
2023-01-31T19:03:41.471Z,10.45
2023-01-31T19:06:11.038Z,11.80
2023-01-31T19:08:38.609Z,8.98
2023-01-31T19:11:07.962Z,9.40
2023-01-31T19:13:35.737Z,14.45
2023-01-31T19:16:08.027Z,8.23
2023-01-31T19:18:35.624Z,14.07
2023-01-31T19:21:03.415Z,7.63
2023-01-31T19:23:30.548Z,12.82
2023-01-31T19:26:24.473Z,12.88
2023-01-31T19:28:51.804Z,10.15
2023-01-31T19:31:23.703Z,5.90
2023-01-31T19:33:52.903Z,13.23
2023-01-31T19:36:29.269Z,4.57
2023-01-31T19:38:57.619Z,6.88
2023-01-31T19:41:26.196Z,7.13
2023-01-31T19:43:55.346Z,8.75
2023-01-31T19:46:23.681Z,12.57
2023-01-31T19:48:50.826Z,6.22
2023-01-31T19:51:20.601Z,8.05
2023-01-31T19:53:48.849Z,7.80
2023-01-31T19:56:16.594Z,9.90
2023-01-31T19:58:43.905Z,12.23
2023-01-31T20:01:13.328Z,7.80
2023-01-31T20:03:40.464Z,8.93
2023-01-31T20:06:13.199Z,14.27
2023-01-31T20:08:40.435Z,14.85
2023-01-31T20:11:08.619Z,9.75
2023-01-31T20:13:36.040Z,11.15
2023-01-31T20:16:06.029Z,8.23
2023-01-31T20:18:34.674Z,8.45
2023-01-31T20:21:02.006Z,12.80
2023-01-31T20:23:29.166Z,16.73
2023-01-31T20:25:57.044Z,14.10
2023-01-31T20:28:25.269Z,15.80
2023-01-31T20:30:53.040Z,10.27
2023-01-31T20:33:20.541Z,10.68
2023-01-31T20:35:47.981Z,23.73
2023-01-31T20:38:18.312Z,17.30
2023-01-31T20:40:53.120Z,18.17
2023-01-31T20:43:21.916Z,16.63
2023-01-31T20:45:49.353Z,19.58
2023-01-31T20:48:16.762Z,13.23
2023-01-31T20:50:44.063Z,14.50
2023-01-31T20:53:19.188Z,17.25
2023-01-31T20:55:53.739Z,16.90
2023-01-31T20:58:20.839Z,15.07
2023-01-31T21:00:48.066Z,14.80
2023-01-31T21:03:15.195Z,16.33
2023-01-31T21:05:42.351Z,16.73
2023-01-31T21:08:09.563Z,18.67
2023-01-31T21:10:36.707Z,23.13
2023-01-31T21:13:28.980Z,20.27
2023-01-31T21:15:58.144Z,18.02
2023-01-31T21:18:27.501Z,17.23
2023-01-31T21:20:54.993Z,20.55
2023-01-31T21:23:22.141Z,19.67
2023-01-31T21:25:49.315Z,19.85
2023-01-31T21:28:16.728Z,20.15
2023-01-31T21:30:44.709Z,18.13
2023-01-31T21:33:11.896Z,23.23
2023-01-31T21:35:39.088Z,16.20
2023-01-31T21:38:06.240Z,21.25
2023-01-31T21:40:33.333Z,16.92
2023-01-31T21:43:00.450Z,13.60
2023-01-31T21:45:40.170Z,12.15
2023-01-31T21:48:28.258Z,16.95
2023-01-31T21:50:56.300Z,8.77
2023-01-31T21:53:23.391Z,6.90
2023-01-31T21:55:50.548Z,12.15
2023-01-31T21:58:17.720Z,7.90
2023-01-31T22:00:44.820Z,7.72
2023-01-31T22:03:12.015Z,10.25
2023-01-31T22:05:39.178Z,7.82
2023-01-31T22:08:06.271Z,12.05
2023-01-31T22:10:33.434Z,6.03
2023-01-31T22:13:00.575Z,8.40
2023-01-31T22:15:27.822Z,6.53
2023-01-31T22:17:54.995Z,9.90
2023-01-31T22:20:22.505Z,7.28
2023-01-31T22:22:49.974Z,10.00
2023-01-31T22:25:17.203Z,5.32
2023-01-31T22:27:44.294Z,10.02
2023-01-31T22:30:16.384Z,10.60
2023-01-31T22:32:44.042Z,12.15
2023-01-31T22:35:11.273Z,11.48
2023-01-31T22:37:38.470Z,13.85
2023-01-31T22:40:06.061Z,13.57
2023-01-31T22:42:33.235Z,12.10
2023-01-31T22:45:00.400Z,19.80
2023-01-31T22:47:27.467Z,18.20
2023-01-31T22:49:54.617Z,17.45
2023-01-31T22:52:21.928Z,15.85
2023-01-31T22:54:49.110Z,22.88
2023-01-31T22:57:16.232Z,30.33
2023-01-31T22:59:43.339Z,22.83
2023-01-31T23:02:10.454Z,17.05
2023-01-31T23:04:37.679Z,19.08
2023-01-31T23:07:04.906Z,13.90
2023-01-31T23:09:32.034Z,30.40
2023-01-31T23:11:59.119Z,24.33
2023-01-31T23:14:27.641Z,22.20
2023-01-31T23:17:14.097Z,22.20
2023-01-31T23:20:09.819Z,30.98
2023-01-31T23:22:37.598Z,31.95
2023-01-31T23:25:06.588Z,25.00
2023-01-31T23:27:34.026Z,31.15
2023-01-31T23:30:01.244Z,20.75
2023-01-31T23:32:28.320Z,25.65
2023-01-31T23:34:55.551Z,26.25
2023-01-31T23:37:22.833Z,28.67
2023-01-31T23:39:50.023Z,30.58
2023-01-31T23:42:17.189Z,20.00
2023-01-31T23:44:44.391Z,27.05
2023-01-31T23:47:11.477Z,31.05
2023-01-31T23:49:38.641Z,27.00
2023-01-31T23:52:07.334Z,25.17
2023-01-31T23:54:34.865Z,31.55
2023-01-31T23:57:02.148Z,21.60
2023-01-31T23:59:35.672Z,39.80
